createdAt,value
2023-03-17T00:00:18.068Z,6.73
2023-03-17T00:01:17.629Z,6.76
2023-03-17T00:02:17.346Z,6.77
2023-03-17T00:03:17.568Z,6.76
2023-03-17T00:04:17.656Z,6.76
2023-03-17T00:05:17.694Z,6.73
2023-03-17T00:06:17.679Z,6.76
2023-03-17T00:07:17.773Z,6.76
2023-03-17T00:08:18.160Z,6.76
2023-03-17T00:09:17.927Z,6.76
2023-03-17T00:10:18.450Z,6.73
2023-03-17T00:11:18.072Z,6.73
2023-03-17T00:12:18.174Z,6.73
2023-03-17T00:13:18.601Z,6.72
2023-03-17T00:14:19.174Z,6.69
2023-03-17T00:15:18.583Z,6.69
2023-03-17T00:16:18.683Z,6.66
2023-03-17T00:21:26.133Z,6.66
2023-03-17T00:21:31.158Z,6.62
2023-03-17T00:22:42.431Z,6.65
2023-03-17T00:23:33.828Z,6.65
2023-03-17T00:24:31.605Z,6.68
2023-03-17T00:25:31.672Z,6.66
2023-03-17T00:26:32.135Z,6.68
2023-03-17T00:27:31.684Z,6.68
2023-03-17T00:28:33.514Z,6.66
2023-03-17T00:29:39.432Z,6.68
2023-03-17T00:30:32.596Z,6.66
2023-03-17T00:31:32.012Z,6.66
2023-03-17T00:32:32.229Z,6.65
2023-03-17T00:33:32.379Z,6.65
2023-03-17T00:34:33.101Z,6.63
2023-03-17T00:35:35.606Z,6.63
2023-03-17T00:36:33.150Z,6.63
2023-03-17T00:37:32.704Z,6.62
2023-03-17T00:38:33.262Z,6.63
2023-03-17T00:39:33.266Z,6.62
2023-03-17T00:40:33.199Z,6.62
2023-03-17T00:41:33.306Z,6.61
2023-03-17T00:42:33.063Z,6.59
2023-03-17T00:43:32.035Z,6.61
2023-03-17T00:44:33.088Z,6.59
2023-03-17T00:45:43.451Z,6.58
2023-03-17T00:46:33.228Z,6.56
2023-03-17T00:47:33.459Z,6.54
2023-03-17T00:48:33.399Z,6.54
2023-03-17T00:49:44.807Z,6.53
2023-03-17T00:50:33.599Z,6.53
2023-03-17T00:51:45.102Z,6.53
2023-03-17T00:52:33.791Z,6.51
2023-03-17T00:53:33.847Z,6.48
2023-03-17T00:54:46.810Z,6.48
2023-03-17T00:55:34.179Z,6.46
2023-03-17T00:56:34.217Z,6.46
2023-03-17T00:57:50.665Z,6.44
2023-03-17T00:58:34.463Z,6.44
2023-03-17T00:59:34.518Z,6.43
2023-03-17T01:00:34.527Z,6.43
2023-03-17T01:01:34.804Z,6.46
2023-03-17T01:02:34.716Z,6.46
2023-03-17T01:03:34.719Z,6.47
2023-03-17T01:04:34.812Z,6.46
2023-03-17T01:05:34.886Z,6.47
2023-03-17T01:06:50.877Z,6.46
2023-03-17T01:09:03.392Z,6.40
2023-03-17T01:10:04.413Z,6.35
2023-03-17T01:11:17.159Z,6.30
2023-03-17T01:12:04.649Z,6.30
2023-03-17T01:15:53.037Z,6.19
2023-03-17T01:18:41.457Z,6.09
2023-03-17T01:19:42.435Z,6.06
2023-03-17T01:20:42.406Z,6.06
2023-03-17T01:24:11.458Z,6.03
2023-03-17T01:25:12.492Z,6.00
2023-03-17T01:26:12.902Z,5.96
2023-03-17T01:27:12.732Z,6.00
2023-03-17T01:28:12.778Z,6.01
2023-03-17T01:29:12.837Z,6.06
2023-03-17T01:30:12.867Z,6.07
2023-03-17T01:31:12.999Z,6.09
2023-03-17T01:33:51.843Z,6.07
2023-03-17T01:34:52.946Z,6.06
2023-03-17T01:35:53.088Z,6.04
2023-03-17T01:36:53.044Z,6.06
2023-03-17T01:37:53.254Z,6.07
2023-03-17T01:38:53.201Z,6.09
2023-03-17T01:39:53.352Z,6.09
2023-03-17T01:40:53.354Z,6.11
2023-03-17T01:41:53.445Z,6.13
2023-03-17T01:42:53.810Z,6.13
2023-03-17T01:43:53.681Z,6.11
2023-03-17T01:44:53.696Z,6.11
2023-03-17T01:45:53.858Z,6.13
2023-03-17T01:46:53.885Z,6.13
2023-03-17T01:47:54.084Z,6.13
2023-03-17T01:48:54.091Z,6.11
2023-03-17T01:49:54.130Z,6.13
2023-03-17T01:50:54.396Z,6.14
2023-03-17T01:51:54.379Z,6.14
2023-03-17T01:52:54.577Z,6.13
2023-03-17T01:53:54.591Z,6.11
2023-03-17T01:54:54.529Z,6.09
2023-03-17T01:55:54.651Z,6.10
2023-03-17T01:56:54.640Z,6.09
2023-03-17T01:57:54.848Z,6.09
2023-03-17T01:58:54.806Z,6.07
2023-03-17T01:59:54.862Z,6.09
2023-03-17T02:00:54.955Z,6.07
2023-03-17T02:01:55.084Z,6.07
2023-03-17T02:02:55.208Z,6.06
2023-03-17T02:03:55.326Z,6.06
2023-03-17T02:04:55.497Z,6.07
2023-03-17T02:05:55.476Z,6.06
2023-03-17T02:06:58.382Z,6.06
2023-03-17T02:07:55.528Z,6.04
2023-03-17T02:08:55.617Z,6.07
2023-03-17T02:09:55.712Z,6.06
2023-03-17T02:10:55.805Z,6.06
2023-03-17T02:11:55.873Z,6.07
2023-03-17T02:12:55.982Z,6.06
2023-03-17T02:13:56.007Z,6.07
2023-03-17T02:14:56.089Z,6.07
2023-03-17T02:15:56.215Z,6.06
2023-03-17T02:25:28.880Z,5.59
2023-03-17T02:26:29.958Z,5.59
2023-03-17T02:27:29.985Z,5.60
2023-03-17T02:28:30.121Z,5.64
2023-03-17T02:29:30.180Z,5.67
2023-03-17T02:30:30.648Z,5.70
2023-03-17T02:31:30.351Z,5.73
2023-03-17T02:32:30.487Z,5.75
2023-03-17T02:33:30.519Z,5.77
2023-03-17T02:34:30.600Z,5.78
2023-03-17T02:35:30.720Z,5.82
2023-03-17T02:36:30.821Z,5.83
2023-03-17T02:37:30.806Z,5.83
2023-03-17T02:38:30.932Z,5.86
2023-03-17T02:39:30.973Z,5.85
2023-03-17T03:07:58.751Z,4.88
2023-03-17T03:08:59.710Z,4.86
2023-03-17T03:10:00.048Z,4.89
2023-03-17T03:10:59.835Z,4.92
2023-03-17T03:11:59.894Z,4.98
2023-03-17T03:12:59.969Z,5.01
2023-03-17T03:14:00.045Z,5.05
2023-03-17T03:15:00.157Z,5.10
2023-03-17T03:16:00.386Z,5.14
2023-03-17T03:17:00.318Z,5.16
2023-03-17T03:18:00.392Z,5.19
2023-03-17T03:19:00.473Z,5.23
2023-03-17T03:29:11.711Z,4.98
2023-03-17T03:30:12.788Z,4.99
2023-03-17T03:31:12.888Z,5.02
2023-03-17T03:32:12.929Z,5.07
2023-03-17T03:33:13.018Z,5.10
2023-03-17T03:34:13.078Z,5.17
2023-03-17T03:35:13.168Z,5.22
2023-03-17T03:36:13.242Z,5.27
2023-03-17T03:37:13.310Z,5.27
2023-03-17T03:38:13.387Z,5.30
2023-03-17T03:39:14.525Z,5.32
2023-03-17T03:40:13.561Z,5.35
2023-03-17T03:41:13.661Z,5.38
2023-03-17T03:42:13.718Z,5.38
2023-03-17T03:43:22.777Z,5.41
2023-03-17T03:44:13.917Z,5.43
2023-03-17T03:45:13.989Z,5.45
2023-03-17T03:46:14.107Z,5.48
2023-03-17T03:47:14.166Z,5.49
2023-03-17T03:48:14.239Z,5.52
2023-03-17T03:49:14.314Z,5.52
2023-03-17T03:50:14.370Z,5.52
2023-03-17T03:51:14.485Z,5.53
2023-03-17T03:52:14.565Z,5.56
2023-03-17T03:53:14.638Z,5.56
2023-03-17T03:54:14.688Z,5.57
2023-03-17T03:55:14.802Z,5.57
2023-03-17T03:56:14.886Z,5.57
2023-03-17T03:57:15.006Z,5.57
2023-03-17T03:58:15.082Z,5.57
2023-03-17T03:59:15.149Z,5.57
2023-03-17T04:00:15.204Z,5.57
2023-03-17T04:01:15.255Z,5.56
2023-03-17T04:02:15.386Z,5.57
2023-03-17T04:03:15.433Z,5.59
2023-03-17T04:04:15.501Z,5.57
2023-03-17T04:05:15.627Z,5.60
2023-03-17T04:06:15.659Z,5.60
2023-03-17T04:07:15.798Z,5.60
2023-03-17T04:08:15.862Z,5.60
2023-03-17T04:09:15.917Z,5.64
2023-03-17T04:10:15.984Z,5.63
2023-03-17T04:11:16.045Z,5.66
2023-03-17T04:12:16.146Z,5.64
2023-03-17T04:13:16.223Z,5.66
2023-03-17T04:14:16.287Z,5.63
2023-03-17T04:15:16.418Z,5.64
2023-03-17T04:16:16.514Z,5.64
2023-03-17T04:17:16.610Z,5.66
2023-03-17T04:18:16.676Z,5.64
2023-03-17T04:19:16.809Z,5.64
2023-03-17T04:20:16.834Z,5.64
2023-03-17T04:21:16.941Z,5.64
2023-03-17T04:22:17.025Z,5.66
2023-03-17T04:23:17.084Z,5.64
2023-03-17T04:24:17.145Z,5.66
2023-03-17T04:25:17.251Z,5.66
2023-03-17T04:26:17.309Z,5.64
2023-03-17T04:27:17.425Z,5.64
2023-03-17T04:28:17.442Z,5.64
2023-03-17T04:29:17.541Z,5.63
2023-03-17T04:30:17.608Z,5.60
2023-03-17T04:31:17.699Z,5.59
2023-03-17T04:32:17.768Z,5.56
2023-03-17T04:33:17.821Z,5.56
2023-03-17T04:34:17.878Z,5.53
2023-03-17T04:35:17.994Z,5.53
2023-03-17T04:36:18.068Z,5.52
2023-03-17T04:37:18.187Z,5.52
2023-03-17T04:38:18.244Z,5.53
2023-03-17T04:39:18.317Z,5.53
2023-03-17T04:40:18.381Z,5.53
2023-03-17T04:41:18.470Z,5.53
2023-03-17T04:42:18.603Z,5.55
2023-03-17T04:43:18.675Z,5.53
2023-03-17T04:44:18.763Z,5.52
2023-03-17T04:45:18.863Z,5.53
2023-03-17T04:46:18.975Z,5.55
2023-03-17T04:47:19.080Z,5.53
2023-03-17T04:48:19.094Z,5.55
2023-03-17T04:49:19.207Z,5.55
2023-03-17T04:50:19.266Z,5.55
2023-03-17T04:51:19.371Z,5.56
2023-03-17T04:52:19.474Z,5.55
2023-03-17T04:53:19.543Z,5.55
2023-03-17T04:54:19.608Z,5.53
2023-03-17T04:55:19.681Z,5.53
2023-03-17T04:56:19.730Z,5.50
2023-03-17T04:57:19.844Z,5.50
2023-03-17T04:58:30.322Z,5.50
2023-03-17T04:59:19.992Z,5.49
2023-03-17T05:00:20.055Z,5.46
2023-03-17T05:01:20.174Z,5.45
2023-03-17T05:02:20.312Z,5.45
2023-03-17T05:03:27.226Z,5.45
2023-03-17T05:04:31.132Z,5.43
2023-03-17T05:05:20.515Z,5.43
2023-03-17T05:07:47.653Z,5.35
2023-03-17T05:08:48.757Z,5.31
2023-03-17T05:09:48.720Z,5.28
2023-03-17T05:10:48.821Z,5.27
2023-03-17T05:11:48.886Z,5.23
2023-03-17T05:12:48.969Z,5.20
2023-03-17T05:13:49.056Z,5.22
2023-03-17T05:14:49.119Z,5.19
2023-03-17T05:15:49.175Z,5.17
2023-03-17T05:16:49.461Z,5.16
2023-03-17T05:17:49.339Z,5.14
2023-03-17T05:18:49.421Z,5.17
2023-03-17T05:19:49.478Z,5.17
2023-03-17T05:22:34.563Z,5.12
2023-03-17T05:23:34.112Z,5.10
2023-03-17T05:24:34.066Z,5.09
2023-03-17T05:25:34.146Z,5.09
2023-03-17T05:26:34.194Z,5.12
2023-03-17T05:27:34.301Z,5.13
2023-03-17T05:28:34.404Z,5.14
2023-03-17T05:29:34.494Z,5.17
2023-03-17T05:30:34.973Z,5.17
2023-03-17T05:31:34.672Z,5.17
2023-03-17T05:32:34.801Z,5.20
2023-03-17T05:33:34.835Z,5.23
2023-03-17T05:34:34.868Z,5.25
2023-03-17T05:35:35.019Z,5.23
2023-03-17T05:36:35.097Z,5.27
2023-03-17T05:37:35.172Z,5.27
2023-03-17T05:38:35.272Z,5.28
2023-03-17T05:39:35.344Z,5.30
2023-03-17T05:40:35.384Z,5.28
2023-03-17T05:41:35.497Z,5.30
2023-03-17T05:42:35.603Z,5.31
2023-03-17T05:43:35.696Z,5.30
2023-03-17T05:44:35.726Z,5.31
2023-03-17T05:45:35.791Z,5.32
2023-03-17T05:46:35.957Z,5.31
2023-03-17T05:47:35.919Z,5.34
2023-03-17T05:48:36.048Z,5.34
2023-03-17T05:49:36.114Z,5.34
2023-03-17T05:50:36.219Z,5.35
2023-03-17T05:51:37.030Z,5.34
2023-03-17T05:52:36.380Z,5.35
2023-03-17T05:53:36.519Z,5.37
2023-03-17T05:54:36.546Z,5.34
2023-03-17T05:55:36.622Z,5.35
2023-03-17T05:56:36.728Z,5.35
2023-03-17T05:57:36.806Z,5.37
2023-03-17T05:58:36.918Z,5.38
2023-03-17T05:59:36.987Z,5.37
2023-03-17T06:00:37.024Z,5.35
2023-03-17T06:01:37.088Z,5.38
2023-03-17T06:02:37.195Z,5.37
2023-03-17T06:03:37.280Z,5.37
2023-03-17T06:04:37.360Z,5.37
2023-03-17T06:05:37.797Z,5.38
2023-03-17T06:06:37.542Z,5.38
2023-03-17T06:07:50.833Z,5.38
2023-03-17T06:08:37.733Z,5.38
2023-03-17T06:16:26.219Z,4.94
2023-03-17T06:17:27.208Z,4.91
2023-03-17T06:18:27.303Z,4.88
2023-03-17T06:19:27.395Z,4.91
2023-03-17T06:20:27.463Z,4.92
2023-03-17T06:21:27.525Z,4.92
2023-03-17T06:22:27.643Z,4.95
2023-03-17T06:23:27.698Z,4.96
2023-03-17T06:24:27.794Z,4.98
2023-03-17T06:25:27.920Z,4.99
2023-03-17T06:26:27.945Z,5.01
2023-03-17T06:27:28.021Z,5.02
2023-03-17T06:28:28.102Z,5.05
2023-03-17T06:29:28.711Z,5.07
2023-03-17T06:32:51.092Z,4.98
2023-03-17T06:33:52.076Z,4.92
2023-03-17T06:34:52.158Z,4.94
2023-03-17T06:35:52.287Z,4.95
2023-03-17T06:36:52.345Z,4.96
2023-03-17T06:37:52.426Z,4.99
2023-03-17T06:38:52.505Z,5.04
2023-03-17T06:39:52.548Z,5.05
2023-03-17T06:40:52.677Z,5.07
2023-03-17T06:41:52.734Z,5.10
2023-03-17T06:42:52.844Z,5.13
2023-03-17T06:43:52.967Z,5.14
2023-03-17T06:44:52.992Z,5.17
2023-03-17T06:45:53.089Z,5.19
2023-03-17T06:46:53.237Z,5.22
2023-03-17T06:47:53.248Z,5.20
2023-03-17T06:48:53.323Z,5.20
2023-03-17T06:49:53.392Z,5.20
2023-03-17T06:50:53.548Z,5.16
2023-03-17T06:51:53.550Z,5.16
2023-03-17T06:52:53.675Z,5.13
2023-03-17T06:53:53.738Z,5.12
2023-03-17T06:54:53.795Z,5.07
2023-03-17T06:55:53.868Z,5.04
2023-03-17T06:56:53.963Z,5.01
2023-03-17T06:57:54.003Z,5.02
2023-03-17T06:58:54.115Z,5.01
2023-03-17T06:59:54.185Z,5.01
2023-03-17T07:00:54.356Z,5.01
2023-03-17T07:01:54.485Z,5.02
2023-03-17T07:02:54.448Z,5.02
2023-03-17T07:03:54.554Z,5.05
2023-03-17T07:04:54.675Z,5.09
2023-03-17T07:05:54.737Z,5.10
2023-03-17T07:06:54.776Z,5.10
2023-03-17T07:07:54.847Z,5.13
2023-03-17T07:08:54.914Z,5.13
2023-03-17T07:09:54.982Z,5.16
2023-03-17T07:10:55.077Z,5.17
2023-03-17T07:11:55.153Z,5.19
2023-03-17T07:12:55.232Z,5.22
2023-03-17T07:13:55.343Z,5.23
2023-03-17T07:14:55.397Z,5.25
2023-03-17T07:15:55.844Z,5.28
2023-03-17T07:16:55.601Z,5.30
2023-03-17T07:17:55.699Z,5.31
2023-03-17T07:18:55.764Z,5.32
2023-03-17T07:19:55.840Z,5.34
2023-03-17T07:20:55.941Z,5.35
2023-03-17T07:21:56.014Z,5.40
2023-03-17T07:22:56.109Z,5.40
2023-03-17T07:23:56.166Z,5.43
2023-03-17T07:24:56.331Z,5.45
2023-03-17T07:25:56.352Z,5.48
2023-03-17T07:26:56.440Z,5.49
2023-03-17T07:27:56.532Z,5.50
2023-03-17T07:28:56.592Z,5.53
2023-03-17T07:29:56.721Z,5.55
2023-03-17T07:30:56.800Z,5.56
2023-03-17T07:31:56.821Z,5.57
2023-03-17T07:32:57.048Z,5.60
2023-03-17T07:33:57.397Z,5.64
2023-03-17T07:34:57.100Z,5.64
2023-03-17T07:35:57.271Z,5.67
2023-03-17T07:36:57.263Z,5.68
2023-03-17T07:37:57.390Z,5.70
2023-03-17T07:38:57.459Z,5.73
2023-03-17T07:39:57.531Z,5.74
2023-03-17T07:40:57.678Z,5.78
2023-03-17T07:41:57.720Z,5.81
2023-03-17T07:42:57.788Z,5.82
2023-03-17T07:43:57.856Z,5.83
2023-03-17T07:44:57.925Z,5.85
2023-03-17T07:45:58.071Z,5.88
2023-03-17T07:46:58.121Z,5.88
2023-03-17T07:47:58.145Z,5.89
2023-03-17T07:48:58.244Z,5.91
2023-03-17T07:55:22.419Z,5.71
2023-03-17T07:56:23.569Z,5.71
2023-03-17T07:57:23.716Z,5.73
2023-03-17T07:58:23.636Z,5.78
2023-03-17T07:59:23.738Z,5.83
2023-03-17T08:00:23.738Z,5.91
2023-03-17T08:01:23.904Z,5.95
2023-03-17T08:02:24.126Z,5.98
2023-03-17T08:03:24.055Z,6.04
2023-03-17T08:04:24.075Z,6.09
2023-03-17T08:05:24.217Z,6.13
2023-03-17T08:06:24.241Z,6.21
2023-03-17T08:07:24.373Z,6.25
2023-03-17T08:08:24.438Z,6.29
2023-03-17T08:09:32.227Z,6.33
2023-03-17T08:10:24.712Z,6.38
2023-03-17T08:11:24.704Z,6.40
2023-03-17T08:12:24.761Z,6.43
2023-03-17T08:13:24.840Z,6.46
2023-03-17T08:14:24.929Z,6.46
2023-03-17T08:15:24.957Z,6.48
2023-03-17T08:16:25.160Z,6.54
2023-03-17T08:17:25.114Z,6.58
2023-03-17T08:18:25.243Z,6.65
2023-03-17T08:19:25.350Z,6.69
2023-03-17T08:20:25.406Z,6.77
2023-03-17T08:21:25.481Z,6.81
2023-03-17T08:22:25.582Z,6.86
2023-03-17T08:23:25.656Z,6.91
2023-03-17T08:24:25.691Z,6.97
2023-03-17T08:25:25.853Z,6.99
2023-03-17T08:26:25.905Z,7.04
2023-03-17T08:27:25.954Z,7.08
2023-03-17T08:28:26.079Z,7.12
2023-03-17T08:29:26.142Z,7.15
2023-03-17T08:30:26.294Z,7.17
2023-03-17T08:31:26.499Z,7.23
2023-03-17T08:32:26.519Z,7.26
2023-03-17T08:33:26.505Z,7.32
2023-03-17T08:34:26.561Z,7.35
2023-03-17T08:35:26.664Z,7.38
2023-03-17T08:36:26.763Z,7.42
2023-03-17T08:37:26.846Z,7.49
2023-03-17T08:38:26.893Z,7.52
2023-03-17T08:39:26.984Z,7.56
2023-03-17T08:40:27.016Z,7.59
2023-03-17T08:41:27.105Z,7.62
2023-03-17T08:42:27.153Z,7.66
2023-03-17T08:43:27.230Z,7.72
2023-03-17T08:44:27.292Z,7.75
2023-03-17T08:45:27.369Z,7.78
2023-03-17T08:46:27.592Z,7.81
2023-03-17T08:47:27.514Z,7.85
2023-03-17T08:48:27.568Z,7.85
2023-03-17T08:49:27.632Z,7.89
2023-03-17T08:50:27.880Z,7.90
2023-03-17T08:51:27.904Z,7.92
2023-03-17T08:52:27.930Z,7.93
2023-03-17T08:53:27.973Z,7.96
2023-03-17T08:54:28.067Z,7.96
2023-03-17T08:55:28.118Z,7.97
2023-03-17T08:56:28.251Z,8.02
2023-03-17T08:57:28.337Z,8.04
2023-03-17T08:58:28.389Z,8.10
2023-03-17T08:59:28.474Z,8.12
2023-03-17T09:00:28.598Z,8.18
2023-03-17T09:01:28.640Z,8.21
2023-03-17T09:02:28.810Z,8.28
2023-03-17T09:03:28.851Z,8.33
2023-03-17T09:04:28.893Z,8.36
2023-03-17T09:05:29.477Z,8.39
2023-03-17T09:06:29.071Z,8.40
2023-03-17T09:07:29.203Z,8.47
2023-03-17T09:08:29.204Z,8.50
2023-03-17T09:09:29.279Z,8.58
2023-03-17T09:10:29.694Z,8.66
2023-03-17T09:11:29.484Z,8.73
2023-03-17T09:12:29.606Z,8.81
2023-03-17T09:13:29.748Z,8.90
2023-03-17T09:14:37.300Z,8.97
2023-03-17T09:15:30.012Z,9.05
2023-03-17T09:16:29.953Z,9.13
2023-03-17T09:17:29.973Z,9.21
2023-03-17T09:18:30.077Z,9.30
2023-03-17T09:19:30.146Z,9.39
2023-03-17T09:20:30.580Z,9.48
2023-03-17T09:21:30.319Z,9.52
2023-03-17T09:22:30.386Z,9.57
2023-03-17T09:23:30.474Z,9.61
2023-03-17T09:24:30.564Z,9.66
2023-03-17T09:25:30.652Z,9.68
2023-03-17T09:26:30.772Z,9.75
2023-03-17T09:27:30.791Z,9.78
2023-03-17T09:28:30.911Z,9.81
2023-03-17T09:29:31.013Z,9.83
2023-03-17T09:30:31.265Z,9.88
2023-03-17T09:31:31.250Z,9.91
2023-03-17T09:32:31.296Z,9.94
2023-03-17T09:33:31.313Z,10.00
2023-03-17T09:34:31.403Z,10.01
2023-03-17T09:35:31.571Z,10.03
2023-03-17T09:36:31.563Z,10.03
2023-03-17T09:37:31.600Z,10.01
2023-03-17T09:38:31.674Z,10.01
2023-03-17T09:39:31.751Z,10.03
2023-03-17T09:40:32.188Z,10.04
2023-03-17T09:41:31.937Z,10.10
2023-03-17T09:42:31.960Z,10.17
2023-03-17T09:43:32.062Z,10.18
2023-03-17T09:44:32.132Z,10.19
2023-03-17T09:45:32.212Z,10.22
2023-03-17T09:46:32.304Z,10.21
2023-03-17T09:47:32.374Z,10.24
2023-03-17T09:48:32.466Z,10.30
2023-03-17T09:49:32.532Z,10.33
2023-03-17T09:50:32.994Z,10.33
2023-03-17T09:51:32.720Z,10.33
2023-03-17T09:52:32.753Z,10.33
2023-03-17T09:53:32.856Z,10.33
2023-03-17T09:54:32.962Z,10.34
2023-03-17T09:55:33.534Z,10.37
2023-03-17T09:56:33.148Z,10.39
2023-03-17T09:57:33.176Z,10.43
2023-03-17T09:58:33.245Z,10.52
2023-03-17T09:59:33.329Z,10.56
2023-03-17T10:00:33.393Z,10.59
2023-03-17T10:01:33.634Z,10.62
2023-03-17T10:02:33.555Z,10.65
2023-03-17T10:03:33.628Z,10.70
2023-03-17T10:04:33.715Z,10.74
2023-03-17T10:05:34.334Z,10.78
2023-03-17T10:06:33.918Z,10.84
2023-03-17T10:07:33.952Z,10.91
2023-03-17T10:08:34.055Z,10.98
2023-03-17T10:09:34.121Z,11.06
2023-03-17T10:10:34.210Z,11.13
2023-03-17T10:11:34.290Z,11.21
2023-03-17T10:12:34.375Z,11.28
2023-03-17T10:13:34.464Z,11.32
2023-03-17T10:14:34.532Z,11.34
2023-03-17T10:15:34.610Z,11.35
2023-03-17T10:16:34.773Z,11.36
2023-03-17T10:17:34.750Z,11.39
2023-03-17T10:18:34.842Z,11.43
2023-03-17T10:19:34.946Z,11.47
2023-03-17T10:20:35.038Z,11.50
2023-03-17T10:21:35.128Z,11.52
2023-03-17T10:22:35.180Z,11.54
2023-03-17T10:23:35.250Z,11.57
2023-03-17T10:24:35.349Z,11.61
2023-03-17T10:25:35.415Z,11.67
2023-03-17T10:26:35.532Z,11.71
2023-03-17T10:27:35.556Z,11.75
2023-03-17T10:28:35.644Z,11.80
2023-03-17T10:29:35.698Z,11.83
2023-03-17T10:30:35.828Z,11.87
2023-03-17T10:31:35.995Z,11.90
2023-03-17T10:32:36.033Z,11.93
2023-03-17T10:33:36.061Z,11.97
2023-03-17T10:34:38.001Z,12.02
2023-03-17T10:35:36.523Z,12.05
2023-03-17T10:36:36.336Z,12.12
2023-03-17T10:37:36.387Z,12.19
2023-03-17T10:38:36.475Z,12.26
2023-03-17T10:39:36.533Z,12.30
2023-03-17T10:40:36.607Z,12.37
2023-03-17T10:41:36.721Z,12.41
2023-03-17T10:42:36.746Z,12.42
2023-03-17T10:43:36.838Z,12.46
2023-03-17T10:44:36.916Z,12.49
2023-03-17T10:45:39.153Z,12.52
2023-03-17T10:46:37.160Z,12.59
2023-03-17T10:47:37.151Z,12.64
2023-03-17T10:48:37.222Z,12.70
2023-03-17T10:49:37.283Z,12.78
2023-03-17T10:50:37.424Z,12.82
2023-03-17T10:51:37.566Z,12.88
2023-03-17T10:52:37.562Z,12.93
2023-03-17T10:53:37.662Z,12.99
2023-03-17T10:54:37.708Z,13.02
2023-03-17T10:55:37.804Z,13.07
2023-03-17T10:56:37.922Z,13.14
2023-03-17T10:57:37.953Z,13.18
2023-03-17T10:58:38.043Z,13.24
2023-03-17T10:59:38.570Z,13.29
2023-03-17T11:00:38.301Z,13.36
2023-03-17T11:01:38.329Z,13.38
2023-03-17T11:02:38.367Z,13.46
2023-03-17T11:03:38.494Z,13.49
2023-03-17T11:04:38.528Z,13.54
2023-03-17T11:05:40.019Z,13.59
2023-03-17T11:06:38.715Z,13.63
2023-03-17T11:07:38.805Z,13.71
2023-03-17T11:08:38.866Z,13.77
2023-03-17T11:09:38.979Z,13.84
2023-03-17T11:10:39.025Z,13.89
2023-03-17T11:11:39.132Z,13.91
2023-03-17T11:12:39.180Z,13.95
2023-03-17T11:13:39.269Z,13.98
2023-03-17T11:14:39.351Z,14.06
2023-03-17T11:15:39.443Z,14.10
2023-03-17T11:16:39.591Z,14.16
2023-03-17T11:17:39.600Z,14.21
2023-03-17T11:18:39.682Z,14.24
2023-03-17T11:19:39.763Z,14.29
2023-03-17T11:20:39.843Z,14.32
2023-03-17T11:21:39.946Z,14.37
2023-03-17T11:22:40.074Z,14.38
2023-03-17T11:23:40.101Z,14.44
2023-03-17T11:24:40.193Z,14.49
2023-03-17T11:25:40.284Z,14.52
2023-03-17T11:26:40.385Z,14.56
2023-03-17T11:27:40.432Z,14.60
2023-03-17T11:28:40.512Z,14.64
2023-03-17T11:29:40.572Z,14.65
2023-03-17T11:30:40.656Z,14.69
2023-03-17T11:31:40.819Z,14.71
2023-03-17T11:32:40.875Z,14.78
2023-03-17T11:33:41.001Z,14.80
2023-03-17T11:34:40.993Z,14.80
2023-03-17T11:35:41.077Z,14.81
2023-03-17T11:36:41.254Z,14.86
2023-03-17T11:37:41.244Z,14.88
2023-03-17T11:38:41.312Z,14.91
2023-03-17T11:39:41.395Z,14.95
2023-03-17T11:40:41.486Z,15.01
2023-03-17T11:41:41.623Z,15.03
2023-03-17T11:42:41.651Z,15.05
2023-03-17T11:43:41.746Z,15.09
2023-03-17T11:44:41.835Z,15.12
2023-03-17T11:45:41.937Z,15.15
2023-03-17T11:46:42.046Z,15.17
2023-03-17T11:47:42.079Z,15.19
2023-03-17T11:48:42.163Z,15.19
2023-03-17T11:49:42.258Z,15.20
2023-03-17T11:50:42.350Z,15.19
2023-03-17T11:51:42.445Z,15.21
2023-03-17T11:52:42.547Z,15.23
2023-03-17T11:53:42.568Z,15.24
2023-03-17T11:54:42.644Z,15.27
2023-03-17T11:55:42.711Z,15.27
2023-03-17T11:56:42.839Z,15.31
2023-03-17T11:57:42.844Z,15.30
2023-03-17T11:58:42.934Z,15.30
2023-03-17T11:59:43.025Z,15.30
2023-03-17T12:00:43.970Z,15.31
2023-03-17T12:01:43.218Z,15.35
2023-03-17T12:02:43.256Z,15.36
2023-03-17T12:03:43.452Z,15.38
2023-03-17T12:04:43.578Z,15.41
2023-03-17T12:05:43.485Z,15.43
2023-03-17T12:06:43.611Z,15.45
2023-03-17T12:07:43.706Z,15.45
2023-03-17T12:08:43.800Z,15.48
2023-03-17T12:09:43.867Z,15.51
2023-03-17T12:10:43.941Z,15.52
2023-03-17T12:11:44.036Z,15.56
2023-03-17T12:12:44.114Z,15.59
2023-03-17T12:13:44.194Z,15.63
2023-03-17T12:14:44.283Z,15.64
2023-03-17T12:15:44.540Z,15.66
2023-03-17T12:16:44.484Z,15.68
2023-03-17T12:17:44.514Z,15.70
2023-03-17T12:18:44.623Z,15.70
2023-03-17T12:19:44.692Z,15.74
2023-03-17T12:20:44.774Z,15.74
2023-03-17T12:21:44.878Z,15.75
2023-03-17T12:22:44.910Z,15.79
2023-03-17T12:23:44.974Z,15.81
2023-03-17T12:24:45.062Z,15.82
2023-03-17T12:25:45.152Z,15.84
2023-03-17T12:26:45.249Z,15.86
2023-03-17T12:27:45.343Z,15.86
2023-03-17T12:28:45.415Z,15.86
2023-03-17T12:29:45.541Z,15.86
2023-03-17T12:30:45.767Z,15.86
2023-03-17T12:31:45.681Z,15.85
2023-03-17T12:32:45.891Z,15.86
2023-03-17T12:33:45.859Z,15.86
2023-03-17T12:34:45.956Z,15.86
2023-03-17T12:35:46.038Z,15.86
2023-03-17T12:36:46.110Z,15.86
2023-03-17T12:37:46.178Z,15.88
2023-03-17T12:38:46.244Z,15.88
2023-03-17T12:39:46.327Z,15.88
2023-03-17T12:40:46.396Z,15.88
2023-03-17T12:41:46.547Z,15.89
2023-03-17T12:42:46.565Z,15.89
2023-03-17T12:43:46.678Z,15.92
2023-03-17T12:44:46.733Z,15.93
2023-03-17T12:45:46.818Z,15.93
2023-03-17T12:46:47.006Z,15.93
2023-03-17T12:47:46.985Z,15.94
2023-03-17T12:48:47.063Z,15.96
2023-03-17T12:49:47.139Z,15.99
2023-03-17T12:50:47.214Z,16.00
2023-03-17T12:51:47.358Z,16.00
2023-03-17T12:52:47.396Z,16.01
2023-03-17T12:53:47.471Z,16.03
2023-03-17T12:54:47.585Z,16.03
2023-03-17T12:55:47.638Z,16.03
2023-03-17T12:56:47.742Z,16.03
2023-03-17T12:57:47.786Z,16.01
2023-03-17T12:58:47.854Z,16.01
2023-03-17T12:59:47.972Z,16.04
2023-03-17T13:00:48.022Z,16.06
2023-03-17T13:01:48.240Z,16.06
2023-03-17T13:02:48.229Z,16.11
2023-03-17T13:03:48.239Z,16.12
2023-03-17T13:04:48.312Z,16.14
2023-03-17T13:05:48.397Z,16.18
2023-03-17T13:06:48.489Z,16.18
2023-03-17T13:07:48.588Z,16.20
2023-03-17T13:08:48.665Z,16.22
2023-03-17T13:09:48.757Z,16.22
2023-03-17T13:10:48.909Z,16.23
2023-03-17T13:11:48.949Z,16.22
2023-03-17T13:12:48.987Z,16.23
2023-03-17T13:13:49.065Z,16.25
2023-03-17T13:14:49.148Z,16.25
2023-03-17T13:15:49.248Z,16.23
2023-03-17T13:16:49.338Z,16.23
2023-03-17T13:17:49.364Z,16.25
2023-03-17T13:18:49.463Z,16.26
2023-03-17T13:19:49.559Z,16.26
2023-03-17T13:20:49.625Z,16.26
2023-03-17T13:21:49.748Z,16.27
2023-03-17T13:22:49.821Z,16.30
2023-03-17T13:23:49.886Z,16.33
2023-03-17T13:24:49.960Z,16.34
2023-03-17T13:25:50.032Z,16.35
2023-03-17T13:26:50.124Z,16.35
2023-03-17T13:27:50.209Z,16.38
2023-03-17T13:28:50.284Z,16.40
2023-03-17T13:29:50.363Z,16.41
2023-03-17T13:30:50.465Z,16.44
2023-03-17T13:31:50.577Z,16.45
2023-03-17T13:32:50.608Z,16.45
2023-03-17T13:50:38.085Z,16.27
2023-03-17T13:51:41.889Z,16.31
2023-03-17T13:52:39.201Z,16.31
2023-03-17T13:53:39.295Z,16.33
2023-03-17T13:54:39.358Z,16.34
2023-03-17T13:55:39.523Z,16.34
2023-03-17T13:56:39.594Z,16.35
2023-03-17T13:57:39.656Z,16.35
2023-03-17T13:58:39.700Z,16.35
2023-03-17T13:59:39.796Z,16.35
2023-03-17T14:00:39.930Z,16.35
2023-03-17T14:01:39.947Z,16.35
2023-03-17T14:02:40.021Z,16.35
2023-03-17T14:03:40.279Z,16.35
2023-03-17T14:04:40.214Z,16.37
2023-03-17T14:08:19.213Z,16.35
2023-03-17T14:09:20.303Z,16.35
2023-03-17T14:10:20.327Z,16.37
2023-03-17T14:11:20.382Z,16.40
2023-03-17T14:12:20.487Z,16.44
2023-03-17T14:13:20.589Z,16.50
2023-03-17T14:14:32.203Z,16.56
2023-03-17T14:15:20.728Z,16.60
2023-03-17T14:16:20.842Z,16.65
2023-03-17T14:17:20.902Z,16.70
2023-03-17T14:18:20.962Z,16.73
2023-03-17T14:19:21.069Z,16.75
2023-03-17T14:20:21.131Z,16.81
2023-03-17T14:21:21.244Z,16.85
2023-03-17T14:22:21.313Z,16.88
2023-03-17T14:23:21.399Z,16.89
2023-03-17T14:24:21.483Z,16.92
2023-03-17T14:25:21.549Z,16.92
2023-03-17T14:26:21.646Z,16.93
2023-03-17T14:27:21.712Z,16.93
2023-03-17T14:28:21.789Z,16.96
2023-03-17T14:29:21.897Z,16.96
2023-03-17T14:30:21.922Z,16.98
2023-03-17T14:31:22.053Z,16.99
2023-03-17T14:32:22.098Z,17.00
2023-03-17T14:33:22.150Z,17.03
2023-03-17T14:34:22.309Z,17.03
2023-03-17T14:35:22.342Z,17.04
2023-03-17T14:36:22.442Z,17.04
2023-03-17T14:37:23.466Z,17.06
2023-03-17T14:38:22.602Z,17.07
2023-03-17T14:39:22.685Z,17.08
2023-03-17T14:40:22.761Z,17.10
2023-03-17T14:41:22.823Z,17.10
2023-03-17T14:42:22.915Z,17.13
2023-03-17T14:43:23.022Z,17.11
2023-03-17T14:44:23.098Z,17.11
2023-03-17T14:45:23.156Z,17.13